createdAt,value
2023-03-15T00:05:46.363Z,2.71
2023-03-15T00:11:49.442Z,2.67
2023-03-15T00:17:51.348Z,2.52
2023-03-15T00:23:53.310Z,2.36
2023-03-15T00:29:55.236Z,2.31
2023-03-15T00:35:57.133Z,1.97
2023-03-15T00:41:59.040Z,1.91
2023-03-15T00:48:00.946Z,1.86
2023-03-15T00:54:03.218Z,1.69
2023-03-15T01:00:05.921Z,1.59
2023-03-15T01:06:20.712Z,1.50
2023-03-15T01:12:22.610Z,1.51
2023-03-15T01:18:24.957Z,1.61
2023-03-15T01:24:26.844Z,1.60
2023-03-15T01:30:28.793Z,1.59
2023-03-15T01:36:30.760Z,1.58
2023-03-15T01:42:32.748Z,1.47
2023-03-15T01:48:46.360Z,1.10
2023-03-15T01:54:57.194Z,1.20
2023-03-15T02:00:59.131Z,1.06
2023-03-15T02:07:03.639Z,0.96
2023-03-15T02:13:07.234Z,0.98
2023-03-15T02:19:20.460Z,0.96
2023-03-15T02:25:49.918Z,1.00
2023-03-15T02:31:53.135Z,1.07
2023-03-15T02:37:55.360Z,1.22
2023-03-15T02:44:05.506Z,1.44
2023-03-15T02:50:08.272Z,1.69
2023-03-15T02:56:10.176Z,2.14
2023-03-15T03:02:13.357Z,2.25
2023-03-15T03:08:16.488Z,2.37
2023-03-15T03:14:18.529Z,2.23
2023-03-15T03:20:20.692Z,2.05
2023-03-15T03:26:28.022Z,1.75
2023-03-15T03:32:29.993Z,1.74
2023-03-15T03:38:31.978Z,1.69
2023-03-15T03:44:33.862Z,1.56
2023-03-15T03:50:35.885Z,1.38
2023-03-15T03:56:39.143Z,1.17
2023-03-15T04:02:44.353Z,1.30
2023-03-15T04:08:46.306Z,1.25
2023-03-15T04:14:48.200Z,1.26
2023-03-15T04:20:54.483Z,1.19
2023-03-15T04:26:57.927Z,1.36
2023-03-15T04:33:00.074Z,1.38
2023-03-15T04:39:07.206Z,1.44
2023-03-15T04:45:09.676Z,1.38
2023-03-15T04:51:11.593Z,1.44
2023-03-15T04:57:13.515Z,1.41
2023-03-15T05:03:15.446Z,1.44
2023-03-15T05:09:17.975Z,1.72
2023-03-15T05:15:20.307Z,1.83
2023-03-15T05:21:22.194Z,1.90
2023-03-15T05:27:24.107Z,1.86
2023-03-15T05:33:26.257Z,1.95
2023-03-15T05:39:28.203Z,1.74
2023-03-15T05:45:30.318Z,1.82
2023-03-15T05:51:32.243Z,1.95
2023-03-15T05:57:34.141Z,2.03
2023-03-15T06:03:36.264Z,2.08
2023-03-15T06:09:38.215Z,2.10
2023-03-15T06:15:40.277Z,2.11
2023-03-15T06:21:42.190Z,2.22
2023-03-15T06:27:44.080Z,2.37
2023-03-15T06:33:45.992Z,2.41
2023-03-15T06:39:48.249Z,2.59
2023-03-15T06:45:50.178Z,2.66
2023-03-15T06:51:52.104Z,2.84
2023-03-15T06:57:54.067Z,2.99
2023-03-15T07:03:55.958Z,2.98
2023-03-15T07:09:57.868Z,3.17
2023-03-15T07:15:59.910Z,3.18
2023-03-15T07:22:01.871Z,3.23
2023-03-15T07:28:03.887Z,3.25
2023-03-15T07:34:05.769Z,3.05
2023-03-15T07:40:10.007Z,3.10
2023-03-15T07:46:12.012Z,3.19
2023-03-15T07:52:13.950Z,3.26
2023-03-15T07:58:18.475Z,3.15
2023-03-15T08:04:21.882Z,3.40
2023-03-15T08:10:23.945Z,3.49
2023-03-15T08:16:25.924Z,3.37
2023-03-15T08:22:27.886Z,3.43
2023-03-15T08:28:29.740Z,3.52
2023-03-15T08:34:34.959Z,3.69
2023-03-15T08:40:38.858Z,4.40
2023-03-15T08:46:41.419Z,4.46
2023-03-15T08:52:43.813Z,4.66
2023-03-15T08:58:45.954Z,6.34
2023-03-15T09:04:48.089Z,6.35
2023-03-15T09:10:53.518Z,5.21
2023-03-15T09:16:55.460Z,5.04
2023-03-15T09:22:58.838Z,4.50
2023-03-15T09:29:00.748Z,4.49
2023-03-15T09:35:08.766Z,4.60
2023-03-15T09:41:31.857Z,4.79
2023-03-15T09:47:54.794Z,8.87
2023-03-15T09:54:32.258Z,7.87
2023-03-15T10:00:56.855Z,6.22
2023-03-15T10:07:02.889Z,5.52
2023-03-15T10:13:33.135Z,8.74
2023-03-15T10:19:34.875Z,10.44
2023-03-15T10:25:38.840Z,9.19
2023-03-15T10:31:45.111Z,9.89
2023-03-15T10:37:47.901Z,9.99
2023-03-15T10:44:06.237Z,11.81
2023-03-15T10:50:16.583Z,13.42
2023-03-15T10:56:28.639Z,10.47
2023-03-15T11:02:31.667Z,7.94
2023-03-15T11:08:42.947Z,9.52
2023-03-15T11:14:49.315Z,11.00
2023-03-15T11:20:54.587Z,12.93
2023-03-15T11:27:04.094Z,16.64
2023-03-15T11:33:09.437Z,11.41
2023-03-15T11:39:22.911Z,7.80
2023-03-15T11:45:34.821Z,5.29
2023-03-15T11:51:37.174Z,4.11
2023-03-15T11:57:46.212Z,3.72
2023-03-15T12:03:49.434Z,4.38
2023-03-15T12:09:57.023Z,6.08
2023-03-15T12:15:59.300Z,6.97
2023-03-15T12:22:01.313Z,6.22
2023-03-15T12:28:09.683Z,7.48
2023-03-15T12:34:22.863Z,8.05
2023-03-15T12:40:52.925Z,6.65
2023-03-15T12:46:57.537Z,9.21
2023-03-15T12:53:02.000Z,13.13
2023-03-15T12:59:27.543Z,9.98
2023-03-15T13:05:45.219Z,7.56
2023-03-15T13:12:08.356Z,6.61
2023-03-15T13:18:21.928Z,7.28
2023-03-15T13:24:48.908Z,11.72
2023-03-15T13:30:56.060Z,15.29
2023-03-15T13:37:02.144Z,16.92
2023-03-15T13:43:04.073Z,17.19
2023-03-15T13:49:06.592Z,16.69
2023-03-15T13:55:13.347Z,11.93
2023-03-15T14:01:17.035Z,9.04
2023-03-15T14:07:29.985Z,8.36
2023-03-15T14:13:59.918Z,6.02
2023-03-15T14:20:09.299Z,5.26
2023-03-15T14:26:36.673Z,4.93
2023-03-15T14:32:50.741Z,5.42
2023-03-15T14:38:56.717Z,6.07
2023-03-15T14:44:58.576Z,5.87
2023-03-15T14:51:00.530Z,5.72
2023-03-15T14:57:02.461Z,8.99
2023-03-15T15:03:15.165Z,11.16
2023-03-15T15:09:22.843Z,12.53
2023-03-15T15:15:24.769Z,13.73
2023-03-15T15:21:33.629Z,14.80
2023-03-15T15:27:35.996Z,16.64
2023-03-15T15:33:37.878Z,17.90
2023-03-15T15:39:41.496Z,15.55
2023-03-15T15:45:43.424Z,13.88
2023-03-15T15:51:49.654Z,13.00
2023-03-15T15:57:54.009Z,12.79
2023-03-15T16:03:55.905Z,12.88
2023-03-15T16:09:59.345Z,13.47
2023-03-15T16:16:01.382Z,14.40
2023-03-15T16:22:03.471Z,13.60
2023-03-15T16:28:07.831Z,14.41
2023-03-15T16:34:12.758Z,15.45
2023-03-15T16:40:27.055Z,13.66
2023-03-15T16:46:29.018Z,11.53
2023-03-15T16:52:32.734Z,9.63
2023-03-15T16:58:34.668Z,9.82
2023-03-15T17:04:36.572Z,8.52
2023-03-15T17:10:40.208Z,6.98
2023-03-15T17:16:42.676Z,6.16
2023-03-15T17:22:44.690Z,5.65
2023-03-15T17:28:48.158Z,5.10
2023-03-15T17:34:50.060Z,4.69
2023-03-15T17:40:52.670Z,4.17
2023-03-15T17:46:54.691Z,3.46
2023-03-15T17:53:07.762Z,3.09
2023-03-15T17:59:12.384Z,2.78
2023-03-15T18:05:19.647Z,2.59
2023-03-15T18:11:33.797Z,2.05
2023-03-15T18:17:35.741Z,2.34
2023-03-15T18:23:37.678Z,2.08
2023-03-15T18:29:39.663Z,1.68
2023-03-15T18:35:41.633Z,1.74
2023-03-15T18:41:43.533Z,1.67
2023-03-15T18:47:46.211Z,1.95
2023-03-15T18:53:48.737Z,1.99
2023-03-15T18:59:51.322Z,1.91
2023-03-15T19:05:53.663Z,1.69
2023-03-15T19:11:55.569Z,1.46
2023-03-15T19:17:57.511Z,1.44
2023-03-15T19:23:59.533Z,1.51
2023-03-15T19:30:01.975Z,1.52
2023-03-15T19:36:04.709Z,1.39
2023-03-15T19:42:06.654Z,1.38
2023-03-15T19:48:08.623Z,1.29
2023-03-15T19:54:10.609Z,1.18
2023-03-15T20:00:16.077Z,1.29
2023-03-15T20:06:18.229Z,1.27
2023-03-15T20:12:21.253Z,1.20
2023-03-15T20:18:23.429Z,0.95
2023-03-15T20:24:25.481Z,0.88
2023-03-15T20:30:27.490Z,0.76
2023-03-15T20:36:30.012Z,0.81
2023-03-15T20:42:32.826Z,0.79
2023-03-15T20:48:36.173Z,0.61
2023-03-15T20:54:38.128Z,0.44
2023-03-15T21:00:41.067Z,0.40
2023-03-15T21:06:43.062Z,0.32
2023-03-15T21:12:45.042Z,0.33
2023-03-15T21:18:51.690Z,0.29
2023-03-15T21:24:56.145Z,0.11
2023-03-15T21:30:58.634Z,0.10
2023-03-15T21:37:00.644Z,-0.04
2023-03-15T21:43:02.637Z,0.03
2023-03-15T21:49:04.709Z,-0.01
2023-03-15T21:55:08.359Z,-0.01
2023-03-15T22:01:13.969Z,-0.04
2023-03-15T22:07:16.047Z,-0.10
2023-03-15T22:13:17.937Z,-0.05
2023-03-15T22:19:19.860Z,-0.22
2023-03-15T22:25:21.851Z,-0.24
2023-03-15T22:31:23.780Z,-0.21
2023-03-15T22:37:25.849Z,-0.28
2023-03-15T22:43:27.847Z,-0.30
2023-03-15T22:49:29.770Z,-0.28
2023-03-15T22:55:31.642Z,-0.26
2023-03-15T23:01:33.633Z,-0.33
2023-03-15T23:07:35.661Z,-0.44
2023-03-15T23:13:37.992Z,-0.53
2023-03-15T23:19:40.422Z,-0.56
2023-03-15T23:25:43.100Z,-0.65
2023-03-15T23:31:45.038Z,-0.69
2023-03-15T23:37:47.409Z,-0.72
2023-03-15T23:43:49.300Z,-0.75
2023-03-15T23:49:51.848Z,-0.75
2023-03-15T23:55:54.628Z,-0.89
